Nearby METAR Reports

 

KMGY - Dayton, Ohio, USA
Distance from station: N 3mi, 5km
Updated: 05/19/2019 2:53am
Clear
Clear
 Wind from S
Wind: S 7 mph , 11 km/h
Temperature: 72°F , 22°C
Dew Point: 63°F , 17°C
Humidity: 73%
Barometer: 29.85 inHg , 1010.8 hPa
Clouds: Clear
Visibility: 10 miles , 16 km
2019/05/19 06:53 KMGY 190653Z AUTO 17006KT 10SM CLR 22/17 A2985 RMK AO2 SLP100 T02170167
KMWO - Middletown/Hook, Ohio, USA
Distance from station: W 9mi, 14km
Updated: 05/19/2019 2:55am
Clear
Clear
 Wind from SSW
Wind: SSW 3 mph , 6 km/h
Temperature: 70°F , 21°C
Dew Point: 63°F , 17°C
Humidity: 78%
Barometer: 29.86 inHg , 1011.2 hPa
Clouds: Clear
Visibility: 10 miles , 16 km
2019/05/19 06:55 KMWO 190655Z AUTO 20003KT 10SM CLR 21/17 A2986 RMK AO2 T02130173
 
KHAO - Hamilton, Ohio, USA
Distance from station: SW 20mi, 32km
Updated: 05/19/2019 2:53am
Clear
Clear
 Wind from calm
Wind: Calm
Temperature: 72°F , 22°C
Dew Point: 64°F , 18°C
Humidity: 78%
Barometer: 29.86 inHg , 1011.2 hPa
Clouds: Clear
Visibility: 10 miles , 16 km
2019/05/19 06:53 KHAO 190653Z AUTO 00000KT 10SM CLR 22/18 A2986 RMK AO2 SLP104 T02220178
KFFO - Wright Paterson, Ohio, USA
Distance from station: NNE 21mi, 34km
Updated: 05/19/2019 2:56am
Clear
Clear
 Wind from SSE
Wind: SSE 9 mph , 15 km/h
Temperature: 72°F , 22°C
Dew Point: 63°F , 17°C
Humidity: 73%
Barometer: 29.85 inHg , 1010.8 hPa
Clouds: Clear
Visibility: 10 miles , 16 km
2019/05/19 06:56 KFFO 190656Z AUTO 16008KT 10SM CLR 22/17 A2985 RMK AO2 SLP105 T02170168
 
KDAY - Dayton, Ohio, USA
Distance from station: N 24mi, 39km
Updated: 05/19/2019 2:56am
Few Clouds
Few Clouds
 Wind from S
Wind: S 12 mph , 19 km/h
Temperature: 73°F , 23°C
Dew Point: 61°F , 16°C
Humidity: 65%
Barometer: 29.86 inHg , 1011.2 hPa
Clouds: Few Clouds
Visibility: 10 miles , 16 km
Cloud details: Few Clouds 25000 ft
2019/05/19 06:56 KDAY 190656Z 18010KT 10SM FEW250 23/16 A2986 RMK AO2 SLP100 T02280161
KILN - Wilmington, Ohio, USA
Distance from station: ESE 25mi, 39km
Updated: 05/19/2019 2:54am
Few Clouds
Few Clouds
 Wind from S
Wind: S 8 mph , 13 km/h
Temperature: 70°F , 21°C
Dew Point: 64°F , 18°C
Humidity: 83%
Barometer: 29.88 inHg , 1011.9 hPa
Clouds: Few Clouds
Visibility: 10 miles , 16 km
Cloud details: Few Clouds 12000 ft
2019/05/19 06:54 KILN 190654Z AUTO 19007KT 10SM FEW120 21/18 A2988 RMK AO2 SLP107 T02060178
 
KSGH - Springfield Muni, Ohio, USA
Distance from station: NE 29mi, 46km
Updated: 05/19/2019 2:56am
Clear
Clear
 Wind from S
Wind: S 7 mph , 11 km/h
Temperature: 72°F , 22°C
Dew Point: 64°F , 18°C
Humidity: 78%
Barometer: 29.87 inHg , 1011.5 hPa
Clouds: Clear
Visibility: 10 miles , 16 km
2019/05/19 06:56 KSGH 190656Z AUTO 18006KT 10SM CLR 22/18 A2987 RMK AO2 SLP108 T02170178
KI69 - Batavia, Ohio, USA
Distance from station: S 32mi, 52km
Updated: 05/19/2019 2:55am
Clear
Clear
 Wind from S
Wind: S 3 mph , 6 km/h
Temperature: 72°F , 22°C
Dew Point: 63°F , 17°C
Humidity: 73%
Barometer: 29.89 inHg , 1012.2 hPa
Clouds: Clear
Visibility: 10 miles , 16 km
2019/05/19 06:55 KI69 190655Z AUTO 18003KT 10SM CLR 22/17 A2989 RMK AO2 T02160172
 
KLUK - Cincinnat/Lunken, Ohio, USA
Distance from station: SSW 33mi, 53km
Updated: 05/19/2019 2:53am
Clear
Clear
 Wind from SSW
Wind: SSW 6 mph , 9 km/h
Temperature: 70°F , 21°C
Dew Point: 63°F , 17°C
Humidity: 78%
Barometer: 29.86 inHg , 1011.2 hPa
Clouds: Clear
Visibility: 10 miles , 16 km
2019/05/19 06:53 KLUK 190653Z AUTO 20005KT 10SM CLR 21/17 A2986 RMK AO2 SLP108 T02060167
KCVG - Covington, Kentucky, USA
Distance from station: SSW 42mi, 67km
Updated: 05/19/2019 2:52am
Clear
Clear
 Wind from S
Wind: S 9 mph , 15 km/h
Temperature: 72°F , 22°C
Dew Point: 63°F , 17°C
Humidity: 73%
Barometer: 29.86 inHg , 1011.2 hPa
Clouds: Clear
Visibility: 10 miles , 16 km
2019/05/19 06:52 KCVG 190652Z 19008KT 10SM CLR 22/17 A2986 RMK AO2 SLP098 T02170167 $
 
KVES - Versailles, Ohio, USA
Distance from station: NNW 47mi, 76km
Updated: 05/19/2019 2:30am
Clear
Clear
 Wind from S
Wind: S 10 mph , 17 km/h
Temperature: 70°F , 21°C
Dew Point: 63°F , 17°C
Humidity: 78%
Barometer: 29.83 inHg , 1010.2 hPa
Clouds: Clear
Visibility: 10 miles , 16 km
2019/05/19 06:30 KVES 190630Z AUTO 17009KT 10SM CLR 21/17 A2983 RMK AO2